sensor_id;sensor_type;location;lat;lon;timestamp;temperature;humidity
42965;DHT22;28604;51.204;22.552;2023-04-01T00:00:12;10.30;88.00
42965;DHT22;28604;51.204;22.552;2023-04-01T00:02:59;10.30;87.70
42965;DHT22;28604;51.204;22.552;2023-04-01T00:05:26;10.20;88.70
42965;DHT22;28604;51.204;22.552;2023-04-01T00:07:52;10.30;88.60
42965;DHT22;28604;51.204;22.552;2023-04-01T00:10:18;10.20;88.80
42965;DHT22;28604;51.204;22.552;2023-04-01T00:12:44;10.20;88.50
42965;DHT22;28604;51.204;22.552;2023-04-01T00:15:11;10.10;88.40
42965;DHT22;28604;51.204;22.552;2023-04-01T00:17:38;10.10;88.00
42965;DHT22;28604;51.204;22.552;2023-04-01T00:20:05;10.10;88.10
42965;DHT22;28604;51.204;22.552;2023-04-01T00:22:31;10.10;88.40
42965;DHT22;28604;51.204;22.552;2023-04-01T00:24:57;10.00;88.90
42965;DHT22;28604;51.204;22.552;2023-04-01T00:27:23;10.00;89.40
42965;DHT22;28604;51.204;22.552;2023-04-01T00:29:48;9.90;88.50
42965;DHT22;28604;51.204;22.552;2023-04-01T00:32:15;10.00;87.70
42965;DHT22;28604;51.204;22.552;2023-04-01T00:34:41;9.90;88.30
42965;DHT22;28604;51.204;22.552;2023-04-01T00:37:08;9.90;87.30
42965;DHT22;28604;51.204;22.552;2023-04-01T00:39:34;9.80;87.70
42965;DHT22;28604;51.204;22.552;2023-04-01T00:42:01;9.80;87.90
42965;DHT22;28604;51.204;22.552;2023-04-01T00:44:31;9.80;88.10
42965;DHT22;28604;51.204;22.552;2023-04-01T00:46:59;9.80;87.40
42965;DHT22;28604;51.204;22.552;2023-04-01T00:49:33;9.70;88.20
42965;DHT22;28604;51.204;22.552;2023-04-01T00:52:02;9.70;88.00
42965;DHT22;28604;51.204;22.552;2023-04-01T00:54:30;9.60;88.40
42965;DHT22;28604;51.204;22.552;2023-04-01T00:59:54;9.60;89.30
42965;DHT22;28604;51.204;22.552;2023-04-01T01:02:22;9.60;88.90
42965;DHT22;28604;51.204;22.552;2023-04-01T01:04:48;9.60;89.20
42965;DHT22;28604;51.204;22.552;2023-04-01T01:10:56;9.60;90.10
42965;DHT22;28604;51.204;22.552;2023-04-01T01:13:09;9.60;88.80
42965;DHT22;28604;51.204;22.552;2023-04-01T01:15:47;9.60;89.40
42965;DHT22;28604;51.204;22.552;2023-04-01T01:26:57;9.60;90.00
42965;DHT22;28604;51.204;22.552;2023-04-01T01:32:29;9.70;88.60
42965;DHT22;28604;51.204;22.552;2023-04-01T01:35:37;9.60;89.10
42965;DHT22;28604;51.204;22.552;2023-04-01T01:38:14;9.60;90.00
42965;DHT22;28604;51.204;22.552;2023-04-01T01:40:47;9.60;88.40
42965;DHT22;28604;51.204;22.552;2023-04-01T01:43:16;9.60;88.60
42965;DHT22;28604;51.204;22.552;2023-04-01T01:45:47;9.60;88.90
42965;DHT22;28604;51.204;22.552;2023-04-01T01:48:15;9.70;88.70
42965;DHT22;28604;51.204;22.552;2023-04-01T01:50:44;9.60;89.70
42965;DHT22;28604;51.204;22.552;2023-04-01T01:53:13;9.60;89.50
42965;DHT22;28604;51.204;22.552;2023-04-01T01:55:41;9.60;89.80
42965;DHT22;28604;51.204;22.552;2023-04-01T01:58:33;9.60;88.90
42965;DHT22;28604;51.204;22.552;2023-04-01T02:01:09;9.70;89.60
42965;DHT22;28604;51.204;22.552;2023-04-01T02:03:39;9.70;88.80
42965;DHT22;28604;51.204;22.552;2023-04-01T02:06:10;9.70;89.50
42965;DHT22;28604;51.204;22.552;2023-04-01T02:08:57;9.70;88.90
42965;DHT22;28604;51.204;22.552;2023-04-01T02:11:29;9.70;88.70
42965;DHT22;28604;51.204;22.552;2023-04-01T02:14:09;9.70;88.70
42965;DHT22;28604;51.204;22.552;2023-04-01T02:19:15;9.70;88.80
42965;DHT22;28604;51.204;22.552;2023-04-01T02:21:55;9.70;89.40
42965;DHT22;28604;51.204;22.552;2023-04-01T02:24:23;9.70;89.50
42965;DHT22;28604;51.204;22.552;2023-04-01T02:26:51;9.70;88.90
42965;DHT22;28604;51.204;22.552;2023-04-01T02:29:20;9.70;89.20
42965;DHT22;28604;51.204;22.552;2023-04-01T02:31:47;9.80;89.20
42965;DHT22;28604;51.204;22.552;2023-04-01T02:34:13;9.80;89.50
42965;DHT22;28604;51.204;22.552;2023-04-01T02:36:40;9.70;88.80
42965;DHT22;28604;51.204;22.552;2023-04-01T02:39:06;9.70;89.40
42965;DHT22;28604;51.204;22.552;2023-04-01T02:41:39;9.70;89.10
42965;DHT22;28604;51.204;22.552;2023-04-01T02:44:05;9.70;88.70
42965;DHT22;28604;51.204;22.552;2023-04-01T02:46:31;9.80;88.30
42965;DHT22;28604;51.204;22.552;2023-04-01T02:48:57;9.70;88.30
42965;DHT22;28604;51.204;22.552;2023-04-01T02:51:25;9.70;88.50
42965;DHT22;28604;51.204;22.552;2023-04-01T02:53:51;9.70;88.40
42965;DHT22;28604;51.204;22.552;2023-04-01T02:56:17;9.70;88.30
42965;DHT22;28604;51.204;22.552;2023-04-01T02:58:45;9.70;89.00
42965;DHT22;28604;51.204;22.552;2023-04-01T03:01:12;9.60;89.70
42965;DHT22;28604;51.204;22.552;2023-04-01T03:03:38;9.60;89.40
42965;DHT22;28604;51.204;22.552;2023-04-01T03:06:09;9.60;89.50
42965;DHT22;28604;51.204;22.552;2023-04-01T03:08:35;9.60;89.80
42965;DHT22;28604;51.204;22.552;2023-04-01T03:11:01;9.60;90.10
42965;DHT22;28604;51.204;22.552;2023-04-01T03:13:28;9.60;89.60
42965;DHT22;28604;51.204;22.552;2023-04-01T03:15:54;9.60;89.90
42965;DHT22;28604;51.204;22.552;2023-04-01T03:18:20;9.50;90.20
42965;DHT22;28604;51.204;22.552;2023-04-01T03:20:46;9.50;90.00
42965;DHT22;28604;51.204;22.552;2023-04-01T03:23:12;9.50;90.00
42965;DHT22;28604;51.204;22.552;2023-04-01T03:25:38;9.50;90.10
42965;DHT22;28604;51.204;22.552;2023-04-01T03:28:04;9.50;89.90
42965;DHT22;28604;51.204;22.552;2023-04-01T03:30:30;9.50;89.90
42965;DHT22;28604;51.204;22.552;2023-04-01T03:33:00;9.50;89.80
42965;DHT22;28604;51.204;22.552;2023-04-01T03:35:27;9.50;90.20
42965;DHT22;28604;51.204;22.552;2023-04-01T03:37:53;9.50;89.90
42965;DHT22;28604;51.204;22.552;2023-04-01T03:40:20;9.50;90.10
42965;DHT22;28604;51.204;22.552;2023-04-01T03:42:46;9.50;89.90
42965;DHT22;28604;51.204;22.552;2023-04-01T03:45:14;9.50;90.30
42965;DHT22;28604;51.204;22.552;2023-04-01T03:47:41;9.50;90.00
42965;DHT22;28604;51.204;22.552;2023-04-01T03:50:08;9.50;90.00
42965;DHT22;28604;51.204;22.552;2023-04-01T03:52:34;9.50;90.00
42965;DHT22;28604;51.204;22.552;2023-04-01T03:55:00;9.50;90.10
42965;DHT22;28604;51.204;22.552;2023-04-01T03:57:27;9.50;89.70
42965;DHT22;28604;51.204;22.552;2023-04-01T03:59:56;9.50;89.90
42965;DHT22;28604;51.204;22.552;2023-04-01T04:02:22;9.50;90.20
42965;DHT22;28604;51.204;22.552;2023-04-01T04:04:48;9.50;89.80
42965;DHT22;28604;51.204;22.552;2023-04-01T04:07:14;9.50;90.00
42965;DHT22;28604;51.204;22.552;2023-04-01T04:10:00;9.50;90.00
42965;DHT22;28604;51.204;22.552;2023-04-01T04:12:26;9.50;90.00
42965;DHT22;28604;51.204;22.552;2023-04-01T04:14:53;9.40;90.00
42965;DHT22;28604;51.204;22.552;2023-04-01T04:17:19;9.40;89.90
42965;DHT22;28604;51.204;22.552;2023-04-01T04:19:45;9.40;90.20
42965;DHT22;28604;51.204;22.552;2023-04-01T04:22:12;9.40;90.10
42965;DHT22;28604;51.204;22.552;2023-04-01T04:24:38;9.50;90.20
42965;DHT22;28604;51.204;22.552;2023-04-01T04:27:10;9.50;90.20
42965;DHT22;28604;51.204;22.552;2023-04-01T04:29:43;9.40;90.40
42965;DHT22;28604;51.204;22.552;2023-04-01T04:32:09;9.40;90.30
42965;DHT22;28604;51.204;22.552;2023-04-01T04:34:35;9.40;90.40
42965;DHT22;28604;51.204;22.552;2023-04-01T04:37:01;9.50;90.40
42965;DHT22;28604;51.204;22.552;2023-04-01T04:39:31;9.40;90.40
42965;DHT22;28604;51.204;22.552;2023-04-01T04:41:58;9.40;90.20
42965;DHT22;28604;51.204;22.552;2023-04-01T04:44:24;9.50;90.20
42965;DHT22;28604;51.204;22.552;2023-04-01T04:46:50;9.40;90.50
42965;DHT22;28604;51.204;22.552;2023-04-01T04:49:16;9.40;90.30
42965;DHT22;28604;51.204;22.552;2023-04-01T04:51:42;9.50;90.30
42965;DHT22;28604;51.204;22.552;2023-04-01T04:54:09;9.50;90.10
42965;DHT22;28604;51.204;22.552;2023-04-01T04:56:58;9.50;90.10
42965;DHT22;28604;51.204;22.552;2023-04-01T04:59:25;9.50;89.90
42965;DHT22;28604;51.204;22.552;2023-04-01T05:02:05;9.50;90.10
42965;DHT22;28604;51.204;22.552;2023-04-01T05:04:36;9.60;90.10
42965;DHT22;28604;51.204;22.552;2023-04-01T05:07:02;9.60;90.10
42965;DHT22;28604;51.204;22.552;2023-04-01T05:09:29;9.60;90.20
42965;DHT22;28604;51.204;22.552;2023-04-01T05:11:55;9.60;90.00
42965;DHT22;28604;51.204;22.552;2023-04-01T05:14:22;9.70;90.10
42965;DHT22;28604;51.204;22.552;2023-04-01T05:16:56;9.70;90.10
42965;DHT22;28604;51.204;22.552;2023-04-01T05:19:23;9.70;90.10
42965;DHT22;28604;51.204;22.552;2023-04-01T05:21:48;9.80;90.20
42965;DHT22;28604;51.204;22.552;2023-04-01T05:24:15;9.80;90.20
42965;DHT22;28604;51.204;22.552;2023-04-01T05:26:42;9.80;90.20
42965;DHT22;28604;51.204;22.552;2023-04-01T05:29:08;9.80;90.20
42965;DHT22;28604;51.204;22.552;2023-04-01T05:31:35;9.80;90.20
42965;DHT22;28604;51.204;22.552;2023-04-01T05:34:03;9.90;90.10
42965;DHT22;28604;51.204;22.552;2023-04-01T05:36:29;9.90;90.10
42965;DHT22;28604;51.204;22.552;2023-04-01T05:38:56;10.00;90.30
42965;DHT22;28604;51.204;22.552;2023-04-01T05:41:22;10.00;90.20
42965;DHT22;28604;51.204;22.552;2023-04-01T05:43:48;10.00;90.30
42965;DHT22;28604;51.204;22.552;2023-04-01T05:46:32;10.00;90.30
42965;DHT22;28604;51.204;22.552;2023-04-01T05:49:19;10.10;90.40
42965;DHT22;28604;51.204;22.552;2023-04-01T05:51:46;10.10;90.40
42965;DHT22;28604;51.204;22.552;2023-04-01T05:54:12;10.10;90.20
42965;DHT22;28604;51.204;22.552;2023-04-01T05:56:39;10.10;90.30
42965;DHT22;28604;51.204;22.552;2023-04-01T05:59:05;10.20;90.30
42965;DHT22;28604;51.204;22.552;2023-04-01T06:01:31;10.20;90.40
42965;DHT22;28604;51.204;22.552;2023-04-01T06:03:57;10.20;90.30
42965;DHT22;28604;51.204;22.552;2023-04-01T06:06:27;10.30;90.30
42965;DHT22;28604;51.204;22.552;2023-04-01T06:09:06;10.30;90.20
42965;DHT22;28604;51.204;22.552;2023-04-01T06:20:00;10.40;90.10
42965;DHT22;28604;51.204;22.552;2023-04-01T06:22:47;10.50;90.10
42965;DHT22;28604;51.204;22.552;2023-04-01T06:28:41;10.50;89.90
42965;DHT22;28604;51.204;22.552;2023-04-01T06:34:25;10.60;89.70
42965;DHT22;28604;51.204;22.552;2023-04-01T06:42:50;10.60;89.70
42965;DHT22;28604;51.204;22.552;2023-04-01T06:56:04;10.90;89.00
42965;DHT22;28604;51.204;22.552;2023-04-01T06:58:46;11.00;89.00
42965;DHT22;28604;51.204;22.552;2023-04-01T07:01:14;11.30;89.20
42965;DHT22;28604;51.204;22.552;2023-04-01T07:03:57;11.70;88.30
42965;DHT22;28604;51.204;22.552;2023-04-01T07:06:38;12.10;87.60
42965;DHT22;28604;51.204;22.552;2023-04-01T07:09:12;12.40;85.70
42965;DHT22;28604;51.204;22.552;2023-04-01T07:12:21;12.40;85.30
42965;DHT22;28604;51.204;22.552;2023-04-01T07:15:19;12.50;85.00
42965;DHT22;28604;51.204;22.552;2023-04-01T07:17:47;12.50;84.90
42965;DHT22;28604;51.204;22.552;2023-04-01T07:20:23;12.60;85.80
42965;DHT22;28604;51.204;22.552;2023-04-01T07:22:56;12.90;84.80
42965;DHT22;28604;51.204;22.552;2023-04-01T07:25:33;13.30;84.80
42965;DHT22;28604;51.204;22.552;2023-04-01T07:28:19;13.90;83.70
42965;DHT22;28604;51.204;22.552;2023-04-01T07:32:09;14.70;82.00
42965;DHT22;28604;51.204;22.552;2023-04-01T07:34:12;15.60;80.10
42965;DHT22;28604;51.204;22.552;2023-04-01T07:39:33;17.50;75.30
42965;DHT22;28604;51.204;22.552;2023-04-01T07:45:14;19.00;71.10
42965;DHT22;28604;51.204;22.552;2023-04-01T07:51:03;19.80;67.50
42965;DHT22;28604;51.204;22.552;2023-04-01T07:56:45;20.20;65.90
42965;DHT22;28604;51.204;22.552;2023-04-01T08:05:14;20.00;64.70
42965;DHT22;28604;51.204;22.552;2023-04-01T08:08:36;20.20;65.80
42965;DHT22;28604;51.204;22.552;2023-04-01T08:17:41;20.90;63.90
42965;DHT22;28604;51.204;22.552;2023-04-01T08:20:34;20.90;63.30
42965;DHT22;28604;51.204;22.552;2023-04-01T08:25:49;20.90;62.20
42965;DHT22;28604;51.204;22.552;2023-04-01T08:28:32;21.00;62.70
42965;DHT22;28604;51.204;22.552;2023-04-01T08:31:16;21.30;61.80
42965;DHT22;28604;51.204;22.552;2023-04-01T08:33:44;21.50;61.20
42965;DHT22;28604;51.204;22.552;2023-04-01T08:36:31;21.80;60.40
42965;DHT22;28604;51.204;22.552;2023-04-01T08:39:14;22.10;58.60
42965;DHT22;28604;51.204;22.552;2023-04-01T08:47:48;22.50;57.40
42965;DHT22;28604;51.204;22.552;2023-04-01T08:50:36;22.50;56.60
42965;DHT22;28604;51.204;22.552;2023-04-01T08:53:47;22.40;56.20
42965;DHT22;28604;51.204;22.552;2023-04-01T09:05:14;22.50;55.70
42965;DHT22;28604;51.204;22.552;2023-04-01T09:13:53;22.90;54.70
42965;DHT22;28604;51.204;22.552;2023-04-01T09:16:42;22.70;54.90
42965;DHT22;28604;51.204;22.552;2023-04-01T09:27:27;21.80;55.70
42965;DHT22;28604;51.204;22.552;2023-04-01T09:35:23;21.30;55.70
42965;DHT22;28604;51.204;22.552;2023-04-01T09:38:21;21.10;56.30
42965;DHT22;28604;51.204;22.552;2023-04-01T09:40:58;20.70;56.90
42965;DHT22;28604;51.204;22.552;2023-04-01T09:44:06;20.50;57.80
42965;DHT22;28604;51.204;22.552;2023-04-01T09:55:49;19.40;59.90
42965;DHT22;28604;51.204;22.552;2023-04-01T10:04:42;18.50;62.40
42965;DHT22;28604;51.204;22.552;2023-04-01T10:07:49;18.40;63.10
42965;DHT22;28604;51.204;22.552;2023-04-01T10:10:43;18.30;62.80
42965;DHT22;28604;51.204;22.552;2023-04-01T10:19:03;17.70;63.70
42965;DHT22;28604;51.204;22.552;2023-04-01T10:22:11;17.50;64.20
42965;DHT22;28604;51.204;22.552;2023-04-01T10:46:45;16.50;67.20
42965;DHT22;28604;51.204;22.552;2023-04-01T11:16:57;16.50;68.30
42965;DHT22;28604;51.204;22.552;2023-04-01T11:19:52;16.60;68.30
42965;DHT22;28604;51.204;22.552;2023-04-01T11:30:52;16.40;67.70
42965;DHT22;28604;51.204;22.552;2023-04-01T11:33:28;16.30;67.70
42965;DHT22;28604;51.204;22.552;2023-04-01T11:39:22;16.20;71.10
42965;DHT22;28604;51.204;22.552;2023-04-01T11:45:57;16.00;72.40
42965;DHT22;28604;51.204;22.552;2023-04-01T12:14:17;14.70;79.00
42965;DHT22;28604;51.204;22.552;2023-04-01T12:16:55;14.60;79.60
42965;DHT22;28604;51.204;22.552;2023-04-01T12:19:37;14.60;80.10
42965;DHT22;28604;51.204;22.552;2023-04-01T12:27:53;14.20;81.40
42965;DHT22;28604;51.204;22.552;2023-04-01T12:30:29;14.20;80.60
42965;DHT22;28604;51.204;22.552;2023-04-01T12:33:45;14.10;80.90
42965;DHT22;28604;51.204;22.552;2023-04-01T12:56:33;14.10;81.10
42965;DHT22;28604;51.204;22.552;2023-04-01T12:59:26;14.10;81.20
42965;DHT22;28604;51.204;22.552;2023-04-01T13:02:19;14.10;81.10
42965;DHT22;28604;51.204;22.552;2023-04-01T13:07:59;14.20;81.40
42965;DHT22;28604;51.204;22.552;2023-04-01T13:13:00;14.50;81.00
42965;DHT22;28604;51.204;22.552;2023-04-01T13:38:05;14.40;80.00
42965;DHT22;28604;51.204;22.552;2023-04-01T13:40:51;14.50;80.40
42965;DHT22;28604;51.204;22.552;2023-04-01T13:43:28;14.40;80.40
42965;DHT22;28604;51.204;22.552;2023-04-01T13:48:40;14.30;80.90
42965;DHT22;28604;51.204;22.552;2023-04-01T13:56:37;14.00;82.90
42965;DHT22;28604;51.204;22.552;2023-04-01T14:07:56;13.60;86.90
42965;DHT22;28604;51.204;22.552;2023-04-01T14:10:52;13.60;87.90
42965;DHT22;28604;51.204;22.552;2023-04-01T14:14:12;13.50;86.80
42965;DHT22;28604;51.204;22.552;2023-04-01T14:30:43;13.00;88.70
42965;DHT22;28604;51.204;22.552;2023-04-01T14:33:21;13.00;87.20
42965;DHT22;28604;51.204;22.552;2023-04-01T14:36:04;13.00;87.70
42965;DHT22;28604;51.204;22.552;2023-04-01T14:38:47;13.00;87.30
42965;DHT22;28604;51.204;22.552;2023-04-01T14:41:30;12.90;89.20
42965;DHT22;28604;51.204;22.552;2023-04-01T14:49:40;12.90;90.10
42965;DHT22;28604;51.204;22.552;2023-04-01T14:52:22;12.90;89.30
42965;DHT22;28604;51.204;22.552;2023-04-01T14:54:50;12.90;88.60
42965;DHT22;28604;51.204;22.552;2023-04-01T14:57:43;12.90;88.80
42965;DHT22;28604;51.204;22.552;2023-04-01T15:00:23;12.90;89.50
42965;DHT22;28604;51.204;22.552;2023-04-01T15:03:06;12.70;90.20
42965;DHT22;28604;51.204;22.552;2023-04-01T15:05:52;12.60;90.30
42965;DHT22;28604;51.204;22.552;2023-04-01T15:13:59;12.50;90.40
42965;DHT22;28604;51.204;22.552;2023-04-01T15:19:38;12.30;90.70
42965;DHT22;28604;51.204;22.552;2023-04-01T15:33:18;12.50;90.40
42965;DHT22;28604;51.204;22.552;2023-04-01T15:36:07;12.50;90.20
42965;DHT22;28604;51.204;22.552;2023-04-01T15:42:04;12.50;90.30
42965;DHT22;28604;51.204;22.552;2023-04-01T15:47:37;12.30;90.00
42965;DHT22;28604;51.204;22.552;2023-04-01T15:50:34;12.30;89.90
42965;DHT22;28604;51.204;22.552;2023-04-01T15:56:19;12.20;89.90
42965;DHT22;28604;51.204;22.552;2023-04-01T15:59:20;12.20;90.30
42965;DHT22;28604;51.204;22.552;2023-04-01T16:14:31;11.90;89.80
42965;DHT22;28604;51.204;22.552;2023-04-01T16:19:59;11.70;89.90
42965;DHT22;28604;51.204;22.552;2023-04-01T16:22:34;11.60;90.10
42965;DHT22;28604;51.204;22.552;2023-04-01T16:27:53;11.60;90.10
42965;DHT22;28604;51.204;22.552;2023-04-01T16:30:44;11.60;90.20
42965;DHT22;28604;51.204;22.552;2023-04-01T16:33:19;11.50;91.70
42965;DHT22;28604;51.204;22.552;2023-04-01T16:35:57;11.40;90.40
42965;DHT22;28604;51.204;22.552;2023-04-01T16:43:49;11.30;91.00
42965;DHT22;28604;51.204;22.552;2023-04-01T16:46:28;11.30;90.80
42965;DHT22;28604;51.204;22.552;2023-04-01T16:52:12;11.20;91.50
42965;DHT22;28604;51.204;22.552;2023-04-01T16:54:57;11.20;91.20
42965;DHT22;28604;51.204;22.552;2023-04-01T16:57:50;11.20;91.20
42965;DHT22;28604;51.204;22.552;2023-04-01T17:00:48;11.10;91.10
42965;DHT22;28604;51.204;22.552;2023-04-01T17:03:36;11.10;91.00
42965;DHT22;28604;51.204;22.552;2023-04-01T17:09:15;11.00;91.40
42965;DHT22;28604;51.204;22.552;2023-04-01T17:14:32;11.00;90.90
42965;DHT22;28604;51.204;22.552;2023-04-01T17:17:10;11.00;90.90
42965;DHT22;28604;51.204;22.552;2023-04-01T17:19:49;10.90;91.10
42965;DHT22;28604;51.204;22.552;2023-04-01T17:22:47;10.90;91.20
42965;DHT22;28604;51.204;22.552;2023-04-01T17:28:49;10.90;90.70
42965;DHT22;28604;51.204;22.552;2023-04-01T17:34:19;10.80;91.10
42965;DHT22;28604;51.204;22.552;2023-04-01T17:53:18;10.70;90.90
42965;DHT22;28604;51.204;22.552;2023-04-01T18:01:11;10.60;90.80
42965;DHT22;28604;51.204;22.552;2023-04-01T18:07:24;10.60;90.40
42965;DHT22;28604;51.204;22.552;2023-04-01T18:20:30;10.50;91.30
42965;DHT22;28604;51.204;22.552;2023-04-01T18:23:06;10.50;90.80
42965;DHT22;28604;51.204;22.552;2023-04-01T18:25:40;10.50;90.90
42965;DHT22;28604;51.204;22.552;2023-04-01T18:31:08;10.50;90.80
42965;DHT22;28604;51.204;22.552;2023-04-01T18:33:56;10.50;91.00
42965;DHT22;28604;51.204;22.552;2023-04-01T18:39:38;10.50;90.60
42965;DHT22;28604;51.204;22.552;2023-04-01T18:42:53;10.50;90.50
42965;DHT22;28604;51.204;22.552;2023-04-01T18:45:27;10.50;90.60
42965;DHT22;28604;51.204;22.552;2023-04-01T18:50:54;10.50;90.70
42965;DHT22;28604;51.204;22.552;2023-04-01T18:56:34;10.50;90.50
42965;DHT22;28604;51.204;22.552;2023-04-01T18:59:22;10.50;90.40
42965;DHT22;28604;51.204;22.552;2023-04-01T19:02:02;10.50;90.40
42965;DHT22;28604;51.204;22.552;2023-04-01T19:04:45;10.50;90.50
42965;DHT22;28604;51.204;22.552;2023-04-01T19:07:39;10.50;90.50
42965;DHT22;28604;51.204;22.552;2023-04-01T19:10:37;10.50;90.50
42965;DHT22;28604;51.204;22.552;2023-04-01T19:21:32;10.50;90.40
42965;DHT22;28604;51.204;22.552;2023-04-01T19:27:42;10.40;90.10
42965;DHT22;28604;51.204;22.552;2023-04-01T19:35:42;10.40;90.70
42965;DHT22;28604;51.204;22.552;2023-04-01T19:38:38;10.40;90.80
42965;DHT22;28604;51.204;22.552;2023-04-01T19:46:18;10.40;90.50
42965;DHT22;28604;51.204;22.552;2023-04-01T19:57:54;10.40;91.00
42965;DHT22;28604;51.204;22.552;2023-04-01T20:00:36;10.40;90.50
42965;DHT22;28604;51.204;22.552;2023-04-01T20:03:15;10.40;90.50
42965;DHT22;28604;51.204;22.552;2023-04-01T20:19:41;10.40;90.90
42965;DHT22;28604;51.204;22.552;2023-04-01T20:24:58;10.40;91.00
42965;DHT22;28604;51.204;22.552;2023-04-01T20:27:31;10.40;91.00
42965;DHT22;28604;51.204;22.552;2023-04-01T20:33:18;10.40;90.90
42965;DHT22;28604;51.204;22.552;2023-04-01T20:39:08;10.40;91.00
42965;DHT22;28604;51.204;22.552;2023-04-01T20:47:24;10.40;90.90
42965;DHT22;28604;51.204;22.552;2023-04-01T20:52:41;10.50;91.10
42965;DHT22;28604;51.204;22.552;2023-04-01T21:03:17;10.40;91.30
42965;DHT22;28604;51.204;22.552;2023-04-01T21:06:07;10.50;91.20
42965;DHT22;28604;51.204;22.552;2023-04-01T21:17:37;10.50;91.00
42965;DHT22;28604;51.204;22.552;2023-04-01T21:23:35;10.40;91.40
42965;DHT22;28604;51.204;22.552;2023-04-01T21:29:14;10.40;91.20
42965;DHT22;28604;51.204;22.552;2023-04-01T21:37:37;10.40;91.30
42965;DHT22;28604;51.204;22.552;2023-04-01T21:40:35;10.40;91.20
42965;DHT22;28604;51.204;22.552;2023-04-01T21:52:10;10.40;91.10
42965;DHT22;28604;51.204;22.552;2023-04-01T21:55:07;10.40;91.70
42965;DHT22;28604;51.204;22.552;2023-04-01T22:00:32;10.40;90.90
42965;DHT22;28604;51.204;22.552;2023-04-01T22:06:06;10.50;90.60
42965;DHT22;28604;51.204;22.552;2023-04-01T22:09:18;10.50;90.70
42965;DHT22;28604;51.204;22.552;2023-04-01T22:14:30;10.40;91.30
42965;DHT22;28604;51.204;22.552;2023-04-01T22:20:15;10.30;92.00
42965;DHT22;28604;51.204;22.552;2023-04-01T22:22:52;10.20;92.50
42965;DHT22;28604;51.204;22.552;2023-04-01T22:25:46;10.20;91.90
42965;DHT22;28604;51.204;22.552;2023-04-01T22:31:06;10.30;91.60
42965;DHT22;28604;51.204;22.552;2023-04-01T22:41:45;10.10;91.70
42965;DHT22;28604;51.204;22.552;2023-04-01T22:44:54;10.10;91.70
42965;DHT22;28604;51.204;22.552;2023-04-01T22:53:31;10.00;91.60
42965;DHT22;28604;51.204;22.552;2023-04-01T22:56:07;9.90;92.00
42965;DHT22;28604;51.204;22.552;2023-04-01T22:58:47;9.90;91.30
42965;DHT22;28604;51.204;22.552;2023-04-01T23:01:17;9.90;91.70
42965;DHT22;28604;51.204;22.552;2023-04-01T23:03:46;9.90;91.50
42965;DHT22;28604;51.204;22.552;2023-04-01T23:06:22;9.80;91.70
42965;DHT22;28604;51.204;22.552;2023-04-01T23:08:55;9.80;91.70
42965;DHT22;28604;51.204;22.552;2023-04-01T23:19:28;9.60;92.00
42965;DHT22;28604;51.204;22.552;2023-04-01T23:30:47;9.60;91.60
42965;DHT22;28604;51.204;22.552;2023-04-01T23:35:54;9.50;91.40
42965;DHT22;28604;51.204;22.552;2023-04-01T23:38:23;9.50;91.60
42965;DHT22;28604;51.204;22.552;2023-04-01T23:40:52;9.50;91.40
42965;DHT22;28604;51.204;22.552;2023-04-01T23:43:34;9.50;91.20
42965;DHT22;28604;51.204;22.552;2023-04-01T23:46:03;9.50;91.40
42965;DHT22;28604;51.204;22.552;2023-04-01T23:48:35;9.50;91.70
42965;DHT22;28604;51.204;22.552;2023-04-01T23:51:03;9.40;91.30
42965;DHT22;28604;51.204;22.552;2023-04-01T23:53:34;9.40;91.20
42965;DHT22;28604;51.204;22.552;2023-04-01T23:56:02;9.30;91.20
42965;DHT22;28604;51.204;22.552;2023-04-01T23:58:48;9.30;91.70
